sensor_id;sensor_type;location;lat;lon;timestamp;P1;durP1;ratioP1;P2;durP2;ratioP2
12271;SDS011;6198;51.446;6.698;2023-07-13T00:00:53;8.83;;;2.27;;
12271;SDS011;6198;51.446;6.698;2023-07-13T00:03:21;4.93;;;2.17;;
12271;SDS011;6198;51.446;6.698;2023-07-13T00:05:47;6.20;;;2.23;;
12271;SDS011;6198;51.446;6.698;2023-07-13T00:08:13;5.90;;;2.57;;
12271;SDS011;6198;51.446;6.698;2023-07-13T00:10:40;5.73;;;2.40;;
12271;SDS011;6198;51.446;6.698;2023-07-13T00:13:06;4.83;;;2.00;;
12271;SDS011;6198;51.446;6.698;2023-07-13T00:15:34;4.33;;;1.93;;
12271;SDS011;6198;51.446;6.698;2023-07-13T00:18:00;12.00;;;2.60;;
12271;SDS011;6198;51.446;6.698;2023-07-13T00:20:26;7.20;;;1.70;;
12271;SDS011;6198;51.446;6.698;2023-07-13T00:22:52;8.20;;;2.17;;
12271;SDS011;6198;51.446;6.698;2023-07-13T00:25:22;5.27;;;1.87;;
12271;SDS011;6198;51.446;6.698;2023-07-13T00:27:49;4.53;;;1.97;;
12271;SDS011;6198;51.446;6.698;2023-07-13T00:30:15;5.93;;;2.07;;
12271;SDS011;6198;51.446;6.698;2023-07-13T00:32:41;8.50;;;2.80;;
12271;SDS011;6198;51.446;6.698;2023-07-13T00:35:07;7.80;;;2.13;;
12271;SDS011;6198;51.446;6.698;2023-07-13T00:37:33;6.77;;;2.33;;
12271;SDS011;6198;51.446;6.698;2023-07-13T00:40:01;8.17;;;2.27;;
12271;SDS011;6198;51.446;6.698;2023-07-13T00:42:27;5.20;;;2.10;;
12271;SDS011;6198;51.446;6.698;2023-07-13T00:47:37;5.40;;;2.30;;
12271;SDS011;6198;51.446;6.698;2023-07-13T00:50:04;8.97;;;2.20;;
12271;SDS011;6198;51.446;6.698;2023-07-13T00:52:32;6.03;;;2.17;;
12271;SDS011;6198;51.446;6.698;2023-07-13T00:54:58;5.07;;;2.23;;
12271;SDS011;6198;51.446;6.698;2023-07-13T00:57:24;6.40;;;2.30;;
12271;SDS011;6198;51.446;6.698;2023-07-13T00:59:52;6.03;;;2.30;;
12271;SDS011;6198;51.446;6.698;2023-07-13T01:02:19;4.40;;;2.20;;
12271;SDS011;6198;51.446;6.698;2023-07-13T01:04:46;9.53;;;2.20;;
12271;SDS011;6198;51.446;6.698;2023-07-13T01:07:13;8.20;;;1.97;;
12271;SDS011;6198;51.446;6.698;2023-07-13T01:09:39;6.97;;;2.37;;
12271;SDS011;6198;51.446;6.698;2023-07-13T01:12:05;7.53;;;2.33;;
12271;SDS011;6198;51.446;6.698;2023-07-13T01:14:32;10.73;;;2.33;;
12271;SDS011;6198;51.446;6.698;2023-07-13T01:16:57;14.13;;;3.10;;
12271;SDS011;6198;51.446;6.698;2023-07-13T01:19:38;11.47;;;2.07;;
12271;SDS011;6198;51.446;6.698;2023-07-13T01:22:09;6.43;;;2.40;;
12271;SDS011;6198;51.446;6.698;2023-07-13T01:24:38;7.57;;;2.60;;
12271;SDS011;6198;51.446;6.698;2023-07-13T01:27:05;6.60;;;2.40;;
12271;SDS011;6198;51.446;6.698;2023-07-13T01:29:32;8.97;;;2.30;;
12271;SDS011;6198;51.446;6.698;2023-07-13T01:31:58;5.73;;;2.40;;
12271;SDS011;6198;51.446;6.698;2023-07-13T01:34:26;5.30;;;2.10;;
12271;SDS011;6198;51.446;6.698;2023-07-13T01:36:52;7.80;;;2.63;;
12271;SDS011;6198;51.446;6.698;2023-07-13T01:39:19;6.73;;;2.30;;
12271;SDS011;6198;51.446;6.698;2023-07-13T01:41:45;5.77;;;2.40;;
12271;SDS011;6198;51.446;6.698;2023-07-13T01:44:11;5.80;;;2.30;;
12271;SDS011;6198;51.446;6.698;2023-07-13T01:46:37;7.33;;;2.40;;
12271;SDS011;6198;51.446;6.698;2023-07-13T01:49:03;6.87;;;2.53;;
12271;SDS011;6198;51.446;6.698;2023-07-13T01:51:29;7.33;;;2.43;;
12271;SDS011;6198;51.446;6.698;2023-07-13T01:53:55;4.70;;;2.10;;
12271;SDS011;6198;51.446;6.698;2023-07-13T01:56:21;6.73;;;2.63;;
12271;SDS011;6198;51.446;6.698;2023-07-13T01:58:47;5.83;;;2.47;;
12271;SDS011;6198;51.446;6.698;2023-07-13T02:01:13;12.40;;;2.57;;
12271;SDS011;6198;51.446;6.698;2023-07-13T02:03:39;8.93;;;2.90;;
12271;SDS011;6198;51.446;6.698;2023-07-13T02:06:04;12.57;;;2.73;;
12271;SDS011;6198;51.446;6.698;2023-07-13T02:08:32;3.67;;;2.10;;
12271;SDS011;6198;51.446;6.698;2023-07-13T02:10:58;7.20;;;2.73;;
12271;SDS011;6198;51.446;6.698;2023-07-13T02:13:24;4.23;;;2.30;;
12271;SDS011;6198;51.446;6.698;2023-07-13T02:15:51;8.50;;;2.70;;
12271;SDS011;6198;51.446;6.698;2023-07-13T02:18:17;10.70;;;2.40;;
12271;SDS011;6198;51.446;6.698;2023-07-13T02:20:43;4.50;;;2.27;;
12271;SDS011;6198;51.446;6.698;2023-07-13T02:23:09;5.53;;;2.60;;
12271;SDS011;6198;51.446;6.698;2023-07-13T02:25:35;5.83;;;2.23;;
12271;SDS011;6198;51.446;6.698;2023-07-13T02:28:01;5.67;;;2.40;;
12271;SDS011;6198;51.446;6.698;2023-07-13T02:30:27;9.83;;;2.43;;
12271;SDS011;6198;51.446;6.698;2023-07-13T02:32:55;6.90;;;2.50;;
12271;SDS011;6198;51.446;6.698;2023-07-13T02:35:21;6.93;;;2.50;;
12271;SDS011;6198;51.446;6.698;2023-07-13T02:37:47;4.57;;;2.20;;
12271;SDS011;6198;51.446;6.698;2023-07-13T02:40:13;5.80;;;2.40;;
12271;SDS011;6198;51.446;6.698;2023-07-13T02:42:39;8.17;;;2.43;;
12271;SDS011;6198;51.446;6.698;2023-07-13T02:45:05;5.80;;;2.47;;
12271;SDS011;6198;51.446;6.698;2023-07-13T02:47:32;6.63;;;2.40;;
12271;SDS011;6198;51.446;6.698;2023-07-13T02:49:58;8.60;;;2.80;;
12271;SDS011;6198;51.446;6.698;2023-07-13T02:52:24;7.10;;;2.53;;
12271;SDS011;6198;51.446;6.698;2023-07-13T02:54:50;8.20;;;2.60;;
12271;SDS011;6198;51.446;6.698;2023-07-13T02:57:16;7.37;;;2.77;;
12271;SDS011;6198;51.446;6.698;2023-07-13T02:59:42;7.60;;;2.70;;
12271;SDS011;6198;51.446;6.698;2023-07-13T03:02:08;5.57;;;2.30;;
12271;SDS011;6198;51.446;6.698;2023-07-13T03:04:35;5.67;;;2.70;;
12271;SDS011;6198;51.446;6.698;2023-07-13T03:07:02;8.37;;;2.60;;
12271;SDS011;6198;51.446;6.698;2023-07-13T03:09:28;7.10;;;2.63;;
12271;SDS011;6198;51.446;6.698;2023-07-13T03:11:54;4.93;;;2.53;;
12271;SDS011;6198;51.446;6.698;2023-07-13T03:14:22;9.93;;;3.23;;
12271;SDS011;6198;51.446;6.698;2023-07-13T03:16:48;6.87;;;2.90;;
12271;SDS011;6198;51.446;6.698;2023-07-13T03:19:14;6.23;;;2.63;;
12271;SDS011;6198;51.446;6.698;2023-07-13T03:21:40;5.37;;;2.37;;
12271;SDS011;6198;51.446;6.698;2023-07-13T03:24:06;15.90;;;3.10;;
12271;SDS011;6198;51.446;6.698;2023-07-13T03:26:32;7.00;;;2.53;;
12271;SDS011;6198;51.446;6.698;2023-07-13T03:28:58;7.40;;;2.87;;
12271;SDS011;6198;51.446;6.698;2023-07-13T03:31:28;5.80;;;2.60;;
12271;SDS011;6198;51.446;6.698;2023-07-13T03:33:55;7.73;;;2.57;;
12271;SDS011;6198;51.446;6.698;2023-07-13T03:36:22;8.37;;;2.63;;
12271;SDS011;6198;51.446;6.698;2023-07-13T03:38:50;6.23;;;2.40;;
12271;SDS011;6198;51.446;6.698;2023-07-13T03:41:16;7.50;;;2.67;;
12271;SDS011;6198;51.446;6.698;2023-07-13T03:43:42;7.53;;;2.77;;
12271;SDS011;6198;51.446;6.698;2023-07-13T03:46:08;8.50;;;2.67;;
12271;SDS011;6198;51.446;6.698;2023-07-13T03:48:35;9.53;;;2.93;;
12271;SDS011;6198;51.446;6.698;2023-07-13T03:51:02;7.93;;;2.67;;
12271;SDS011;6198;51.446;6.698;2023-07-13T03:53:28;6.37;;;2.87;;
12271;SDS011;6198;51.446;6.698;2023-07-13T03:55:54;7.70;;;3.17;;
12271;SDS011;6198;51.446;6.698;2023-07-13T03:58:27;10.63;;;4.13;;
12271;SDS011;6198;51.446;6.698;2023-07-13T04:00:54;6.77;;;3.40;;
12271;SDS011;6198;51.446;6.698;2023-07-13T04:03:20;8.90;;;3.60;;
12271;SDS011;6198;51.446;6.698;2023-07-13T04:05:46;9.77;;;3.27;;
12271;SDS011;6198;51.446;6.698;2023-07-13T04:08:12;9.05;;;3.50;;
12271;SDS011;6198;51.446;6.698;2023-07-13T04:10:38;11.48;;;6.22;;
12271;SDS011;6198;51.446;6.698;2023-07-13T04:13:05;11.45;;;4.85;;
12271;SDS011;6198;51.446;6.698;2023-07-13T04:15:31;11.93;;;4.40;;
12271;SDS011;6198;51.446;6.698;2023-07-13T04:17:57;12.63;;;7.63;;
12271;SDS011;6198;51.446;6.698;2023-07-13T04:20:26;10.98;;;5.40;;
12271;SDS011;6198;51.446;6.698;2023-07-13T04:22:52;16.50;;;11.27;;
12271;SDS011;6198;51.446;6.698;2023-07-13T04:25:19;12.60;;;9.30;;
12271;SDS011;6198;51.446;6.698;2023-07-13T04:27:45;9.87;;;5.00;;
12271;SDS011;6198;51.446;6.698;2023-07-13T04:30:11;10.80;;;4.10;;
12271;SDS011;6198;51.446;6.698;2023-07-13T04:32:37;10.15;;;3.80;;
12271;SDS011;6198;51.446;6.698;2023-07-13T04:35:03;9.00;;;3.43;;
12271;SDS011;6198;51.446;6.698;2023-07-13T04:37:29;7.85;;;3.30;;
12271;SDS011;6198;51.446;6.698;2023-07-13T04:39:55;8.85;;;3.47;;
12271;SDS011;6198;51.446;6.698;2023-07-13T04:42:21;9.77;;;3.30;;
12271;SDS011;6198;51.446;6.698;2023-07-13T04:44:48;10.75;;;3.58;;
12271;SDS011;6198;51.446;6.698;2023-07-13T04:47:14;10.30;;;3.45;;
12271;SDS011;6198;51.446;6.698;2023-07-13T04:49:40;9.50;;;3.10;;
12271;SDS011;6198;51.446;6.698;2023-07-13T04:52:06;8.50;;;3.30;;
12271;SDS011;6198;51.446;6.698;2023-07-13T04:54:33;9.63;;;3.40;;
12271;SDS011;6198;51.446;6.698;2023-07-13T04:56:59;8.75;;;3.20;;
12271;SDS011;6198;51.446;6.698;2023-07-13T04:59:25;8.07;;;3.00;;
12271;SDS011;6198;51.446;6.698;2023-07-13T05:01:51;14.70;;;4.00;;
12271;SDS011;6198;51.446;6.698;2023-07-13T05:04:17;11.73;;;3.42;;
12271;SDS011;6198;51.446;6.698;2023-07-13T05:06:43;7.95;;;3.33;;
12271;SDS011;6198;51.446;6.698;2023-07-13T05:09:09;8.17;;;2.47;;
12271;SDS011;6198;51.446;6.698;2023-07-13T05:11:35;11.80;;;3.23;;
12271;SDS011;6198;51.446;6.698;2023-07-13T05:14:01;8.27;;;3.13;;
12271;SDS011;6198;51.446;6.698;2023-07-13T05:16:27;8.53;;;3.10;;
12271;SDS011;6198;51.446;6.698;2023-07-13T05:18:53;7.90;;;3.40;;
12271;SDS011;6198;51.446;6.698;2023-07-13T05:21:19;12.67;;;3.67;;
12271;SDS011;6198;51.446;6.698;2023-07-13T05:23:45;10.77;;;3.77;;
12271;SDS011;6198;51.446;6.698;2023-07-13T05:26:11;9.57;;;3.70;;
12271;SDS011;6198;51.446;6.698;2023-07-13T05:28:37;5.73;;;2.60;;
12271;SDS011;6198;51.446;6.698;2023-07-13T05:31:04;7.23;;;2.87;;
12271;SDS011;6198;51.446;6.698;2023-07-13T05:33:30;9.57;;;3.60;;
12271;SDS011;6198;51.446;6.698;2023-07-13T05:35:56;8.57;;;3.53;;
12271;SDS011;6198;51.446;6.698;2023-07-13T05:38:22;8.30;;;3.70;;
12271;SDS011;6198;51.446;6.698;2023-07-13T05:40:48;12.93;;;3.50;;
12271;SDS011;6198;51.446;6.698;2023-07-13T05:43:14;11.27;;;4.10;;
12271;SDS011;6198;51.446;6.698;2023-07-13T05:45:40;14.30;;;4.23;;
12271;SDS011;6198;51.446;6.698;2023-07-13T05:48:06;13.97;;;4.87;;
12271;SDS011;6198;51.446;6.698;2023-07-13T05:50:32;13.10;;;4.00;;
12271;SDS011;6198;51.446;6.698;2023-07-13T05:52:58;13.83;;;4.27;;
12271;SDS011;6198;51.446;6.698;2023-07-13T05:55:24;16.50;;;4.70;;
12271;SDS011;6198;51.446;6.698;2023-07-13T05:57:50;11.00;;;3.87;;
12271;SDS011;6198;51.446;6.698;2023-07-13T06:00:16;12.27;;;4.47;;
12271;SDS011;6198;51.446;6.698;2023-07-13T06:02:42;11.67;;;4.87;;
12271;SDS011;6198;51.446;6.698;2023-07-13T06:05:08;13.53;;;4.10;;
12271;SDS011;6198;51.446;6.698;2023-07-13T06:07:34;12.53;;;3.93;;
12271;SDS011;6198;51.446;6.698;2023-07-13T06:10:00;10.93;;;4.37;;
12271;SDS011;6198;51.446;6.698;2023-07-13T06:12:26;10.03;;;4.60;;
12271;SDS011;6198;51.446;6.698;2023-07-13T06:14:52;9.77;;;4.47;;
12271;SDS011;6198;51.446;6.698;2023-07-13T06:17:18;14.07;;;4.97;;
12271;SDS011;6198;51.446;6.698;2023-07-13T06:19:44;11.10;;;4.33;;
12271;SDS011;6198;51.446;6.698;2023-07-13T06:22:10;11.13;;;4.13;;
12271;SDS011;6198;51.446;6.698;2023-07-13T06:24:36;11.93;;;4.70;;
12271;SDS011;6198;51.446;6.698;2023-07-13T06:27:02;12.13;;;4.33;;
12271;SDS011;6198;51.446;6.698;2023-07-13T06:29:28;12.30;;;4.53;;
12271;SDS011;6198;51.446;6.698;2023-07-13T06:31:54;9.53;;;4.30;;
12271;SDS011;6198;51.446;6.698;2023-07-13T06:34:20;11.27;;;4.47;;
12271;SDS011;6198;51.446;6.698;2023-07-13T06:36:46;16.73;;;5.10;;
12271;SDS011;6198;51.446;6.698;2023-07-13T06:39:12;11.07;;;4.17;;
12271;SDS011;6198;51.446;6.698;2023-07-13T06:41:38;10.07;;;4.40;;
12271;SDS011;6198;51.446;6.698;2023-07-13T06:44:04;12.73;;;5.10;;
12271;SDS011;6198;51.446;6.698;2023-07-13T06:46:31;12.60;;;4.50;;
12271;SDS011;6198;51.446;6.698;2023-07-13T06:48:57;15.47;;;4.70;;
12271;SDS011;6198;51.446;6.698;2023-07-13T06:51:23;10.97;;;4.13;;
12271;SDS011;6198;51.446;6.698;2023-07-13T06:53:49;12.63;;;4.37;;
12271;SDS011;6198;51.446;6.698;2023-07-13T06:56:15;13.13;;;5.33;;
12271;SDS011;6198;51.446;6.698;2023-07-13T06:58:41;14.80;;;5.30;;
12271;SDS011;6198;51.446;6.698;2023-07-13T07:01:07;9.97;;;4.43;;
12271;SDS011;6198;51.446;6.698;2023-07-13T07:03:34;14.63;;;4.90;;
12271;SDS011;6198;51.446;6.698;2023-07-13T07:06:11;11.50;;;4.90;;
12271;SDS011;6198;51.446;6.698;2023-07-13T07:08:39;15.10;;;5.07;;
12271;SDS011;6198;51.446;6.698;2023-07-13T07:11:05;12.43;;;4.50;;
12271;SDS011;6198;51.446;6.698;2023-07-13T07:13:31;13.07;;;4.30;;
12271;SDS011;6198;51.446;6.698;2023-07-13T07:15:57;13.87;;;5.20;;
12271;SDS011;6198;51.446;6.698;2023-07-13T07:18:25;13.63;;;5.57;;
12271;SDS011;6198;51.446;6.698;2023-07-13T07:20:51;14.00;;;4.70;;
12271;SDS011;6198;51.446;6.698;2023-07-13T07:23:17;10.17;;;4.60;;
12271;SDS011;6198;51.446;6.698;2023-07-13T07:25:44;13.67;;;5.23;;
12271;SDS011;6198;51.446;6.698;2023-07-13T07:28:11;12.23;;;4.87;;
12271;SDS011;6198;51.446;6.698;2023-07-13T07:30:37;12.23;;;5.27;;
12271;SDS011;6198;51.446;6.698;2023-07-13T07:33:07;12.67;;;5.97;;
12271;SDS011;6198;51.446;6.698;2023-07-13T07:35:33;12.43;;;5.00;;
12271;SDS011;6198;51.446;6.698;2023-07-13T07:37:59;13.87;;;5.07;;
12271;SDS011;6198;51.446;6.698;2023-07-13T07:40:25;12.40;;;5.00;;
12271;SDS011;6198;51.446;6.698;2023-07-13T07:42:51;8.10;;;4.90;;
12271;SDS011;6198;51.446;6.698;2023-07-13T07:45:17;12.37;;;5.17;;
12271;SDS011;6198;51.446;6.698;2023-07-13T07:47:43;10.77;;;5.60;;
12271;SDS011;6198;51.446;6.698;2023-07-13T07:50:09;14.03;;;5.83;;
12271;SDS011;6198;51.446;6.698;2023-07-13T07:52:35;13.13;;;5.90;;
12271;SDS011;6198;51.446;6.698;2023-07-13T07:55:01;11.83;;;5.53;;
12271;SDS011;6198;51.446;6.698;2023-07-13T07:57:27;9.80;;;5.13;;
12271;SDS011;6198;51.446;6.698;2023-07-13T07:59:53;14.17;;;5.90;;
12271;SDS011;6198;51.446;6.698;2023-07-13T08:02:19;12.67;;;5.47;;
12271;SDS011;6198;51.446;6.698;2023-07-13T08:04:45;11.47;;;5.10;;
12271;SDS011;6198;51.446;6.698;2023-07-13T08:07:11;15.50;;;5.27;;
12271;SDS011;6198;51.446;6.698;2023-07-13T08:09:37;8.27;;;4.80;;
12271;SDS011;6198;51.446;6.698;2023-07-13T08:12:03;10.53;;;4.93;;
12271;SDS011;6198;51.446;6.698;2023-07-13T08:14:29;9.50;;;4.90;;
12271;SDS011;6198;51.446;6.698;2023-07-13T08:16:55;11.23;;;4.83;;
12271;SDS011;6198;51.446;6.698;2023-07-13T08:19:21;10.50;;;4.80;;
12271;SDS011;6198;51.446;6.698;2023-07-13T08:21:47;12.90;;;4.67;;
12271;SDS011;6198;51.446;6.698;2023-07-13T08:24:13;9.97;;;5.37;;
12271;SDS011;6198;51.446;6.698;2023-07-13T08:26:40;13.83;;;4.87;;
12271;SDS011;6198;51.446;6.698;2023-07-13T08:29:06;13.90;;;5.30;;
12271;SDS011;6198;51.446;6.698;2023-07-13T08:31:32;8.57;;;4.33;;
12271;SDS011;6198;51.446;6.698;2023-07-13T08:33:57;9.23;;;4.40;;
12271;SDS011;6198;51.446;6.698;2023-07-13T08:36:24;10.83;;;5.00;;
12271;SDS011;6198;51.446;6.698;2023-07-13T08:38:51;10.00;;;4.40;;
12271;SDS011;6198;51.446;6.698;2023-07-13T08:41:17;11.70;;;4.70;;
12271;SDS011;6198;51.446;6.698;2023-07-13T08:43:45;11.77;;;4.80;;
12271;SDS011;6198;51.446;6.698;2023-07-13T08:46:15;12.47;;;5.00;;
12271;SDS011;6198;51.446;6.698;2023-07-13T08:48:53;9.07;;;4.43;;
12271;SDS011;6198;51.446;6.698;2023-07-13T08:53:47;8.67;;;4.10;;
12271;SDS011;6198;51.446;6.698;2023-07-13T08:56:21;11.87;;;4.30;;
12271;SDS011;6198;51.446;6.698;2023-07-13T08:58:49;9.57;;;4.73;;
12271;SDS011;6198;51.446;6.698;2023-07-13T09:06:33;12.97;;;5.00;;
12271;SDS011;6198;51.446;6.698;2023-07-13T09:09:06;14.87;;;4.90;;
12271;SDS011;6198;51.446;6.698;2023-07-13T09:14:19;8.20;;;4.67;;
12271;SDS011;6198;51.446;6.698;2023-07-13T09:16:49;8.87;;;4.47;;
12271;SDS011;6198;51.446;6.698;2023-07-13T09:19:19;8.67;;;4.67;;
12271;SDS011;6198;51.446;6.698;2023-07-13T09:21:47;12.37;;;4.80;;
12271;SDS011;6198;51.446;6.698;2023-07-13T09:26:48;11.80;;;4.60;;
12271;SDS011;6198;51.446;6.698;2023-07-13T09:29:16;11.83;;;4.87;;
12271;SDS011;6198;51.446;6.698;2023-07-13T09:31:46;7.87;;;4.90;;
12271;SDS011;6198;51.446;6.698;2023-07-13T09:34:13;9.77;;;4.43;;
12271;SDS011;6198;51.446;6.698;2023-07-13T09:36:39;10.30;;;4.63;;
12271;SDS011;6198;51.446;6.698;2023-07-13T09:39:09;10.13;;;4.10;;
12271;SDS011;6198;51.446;6.698;2023-07-13T09:41:39;11.40;;;4.60;;
12271;SDS011;6198;51.446;6.698;2023-07-13T09:44:07;13.73;;;4.53;;
12271;SDS011;6198;51.446;6.698;2023-07-13T09:46:37;11.37;;;4.63;;
12271;SDS011;6198;51.446;6.698;2023-07-13T09:49:03;8.50;;;4.63;;
12271;SDS011;6198;51.446;6.698;2023-07-13T09:51:29;14.40;;;4.97;;
12271;SDS011;6198;51.446;6.698;2023-07-13T09:53:55;9.40;;;3.73;;
12271;SDS011;6198;51.446;6.698;2023-07-13T09:56:22;9.90;;;4.20;;
12271;SDS011;6198;51.446;6.698;2023-07-13T09:58:49;9.57;;;4.20;;
12271;SDS011;6198;51.446;6.698;2023-07-13T10:01:15;12.67;;;4.20;;
12271;SDS011;6198;51.446;6.698;2023-07-13T10:03:51;8.73;;;3.63;;
12271;SDS011;6198;51.446;6.698;2023-07-13T10:06:19;8.03;;;4.13;;
12271;SDS011;6198;51.446;6.698;2023-07-13T10:08:46;8.80;;;4.20;;
12271;SDS011;6198;51.446;6.698;2023-07-13T10:11:26;10.97;;;4.00;;
12271;SDS011;6198;51.446;6.698;2023-07-13T10:13:55;12.53;;;4.27;;
12271;SDS011;6198;51.446;6.698;2023-07-13T10:16:22;8.80;;;3.60;;
12271;SDS011;6198;51.446;6.698;2023-07-13T10:18:49;10.43;;;4.07;;
12271;SDS011;6198;51.446;6.698;2023-07-13T10:21:17;10.43;;;4.00;;
12271;SDS011;6198;51.446;6.698;2023-07-13T10:23:45;11.20;;;3.80;;
12271;SDS011;6198;51.446;6.698;2023-07-13T10:26:15;15.13;;;4.27;;
12271;SDS011;6198;51.446;6.698;2023-07-13T10:28:42;6.73;;;3.30;;
12271;SDS011;6198;51.446;6.698;2023-07-13T10:31:10;11.53;;;4.00;;
12271;SDS011;6198;51.446;6.698;2023-07-13T10:33:37;8.83;;;3.40;;
12271;SDS011;6198;51.446;6.698;2023-07-13T10:38:48;8.07;;;3.30;;
12271;SDS011;6198;51.446;6.698;2023-07-13T10:41:17;7.10;;;3.53;;
12271;SDS011;6198;51.446;6.698;2023-07-13T10:43:49;9.40;;;3.60;;
12271;SDS011;6198;51.446;6.698;2023-07-13T10:46:17;9.03;;;2.73;;
12271;SDS011;6198;51.446;6.698;2023-07-13T10:48:44;7.23;;;3.60;;
12271;SDS011;6198;51.446;6.698;2023-07-13T10:51:13;5.40;;;2.93;;
12271;SDS011;6198;51.446;6.698;2023-07-13T10:53:40;6.73;;;3.07;;
12271;SDS011;6198;51.446;6.698;2023-07-13T10:58:34;11.00;;;3.83;;
12271;SDS011;6198;51.446;6.698;2023-07-13T11:01:03;9.00;;;3.57;;
12271;SDS011;6198;51.446;6.698;2023-07-13T11:03:30;10.23;;;3.33;;
12271;SDS011;6198;51.446;6.698;2023-07-13T11:08:50;9.00;;;3.17;;
12271;SDS011;6198;51.446;6.698;2023-07-13T11:18:51;7.03;;;3.40;;
12271;SDS011;6198;51.446;6.698;2023-07-13T11:21:19;7.87;;;3.20;;
12271;SDS011;6198;51.446;6.698;2023-07-13T11:23:52;8.03;;;3.30;;
12271;SDS011;6198;51.446;6.698;2023-07-13T11:31:38;7.77;;;3.03;;
12271;SDS011;6198;51.446;6.698;2023-07-13T11:34:06;11.20;;;3.20;;
12271;SDS011;6198;51.446;6.698;2023-07-13T11:36:37;5.27;;;2.70;;
12271;SDS011;6198;51.446;6.698;2023-07-13T11:39:25;6.57;;;3.00;;
12271;SDS011;6198;51.446;6.698;2023-07-13T11:41:56;5.27;;;2.50;;
12271;SDS011;6198;51.446;6.698;2023-07-13T11:44:23;6.53;;;2.83;;
12271;SDS011;6198;51.446;6.698;2023-07-13T11:46:50;6.03;;;3.23;;
12271;SDS011;6198;51.446;6.698;2023-07-13T11:49:17;6.53;;;3.20;;
12271;SDS011;6198;51.446;6.698;2023-07-13T11:51:44;5.23;;;2.77;;
12271;SDS011;6198;51.446;6.698;2023-07-13T11:54:15;6.30;;;2.57;;
12271;SDS011;6198;51.446;6.698;2023-07-13T11:56:45;6.97;;;3.10;;
12271;SDS011;6198;51.446;6.698;2023-07-13T11:59:11;7.80;;;2.50;;
12271;SDS011;6198;51.446;6.698;2023-07-13T12:01:42;8.43;;;2.80;;
12271;SDS011;6198;51.446;6.698;2023-07-13T12:04:11;5.90;;;2.40;;
12271;SDS011;6198;51.446;6.698;2023-07-13T12:06:46;5.33;;;2.63;;
12271;SDS011;6198;51.446;6.698;2023-07-13T12:09:13;7.30;;;3.10;;
12271;SDS011;6198;51.446;6.698;2023-07-13T12:11:43;4.20;;;2.33;;
12271;SDS011;6198;51.446;6.698;2023-07-13T12:14:15;6.97;;;2.53;;
12271;SDS011;6198;51.446;6.698;2023-07-13T12:16:42;5.40;;;3.03;;
12271;SDS011;6198;51.446;6.698;2023-07-13T12:19:14;6.40;;;2.70;;
12271;SDS011;6198;51.446;6.698;2023-07-13T12:21:42;7.17;;;2.90;;
12271;SDS011;6198;51.446;6.698;2023-07-13T12:24:16;5.27;;;2.73;;
12271;SDS011;6198;51.446;6.698;2023-07-13T12:26:43;7.00;;;3.00;;
12271;SDS011;6198;51.446;6.698;2023-07-13T12:29:11;7.93;;;3.20;;
12271;SDS011;6198;51.446;6.698;2023-07-13T12:31:42;7.30;;;2.83;;
12271;SDS011;6198;51.446;6.698;2023-07-13T12:34:19;4.43;;;2.30;;
12271;SDS011;6198;51.446;6.698;2023-07-13T12:41:43;4.73;;;2.60;;
12271;SDS011;6198;51.446;6.698;2023-07-13T12:44:27;6.93;;;2.93;;
12271;SDS011;6198;51.446;6.698;2023-07-13T12:46:55;5.90;;;2.63;;
12271;SDS011;6198;51.446;6.698;2023-07-13T12:49:26;5.00;;;2.20;;
12271;SDS011;6198;51.446;6.698;2023-07-13T12:51:57;7.63;;;2.60;;
12271;SDS011;6198;51.446;6.698;2023-07-13T12:54:24;7.80;;;2.20;;
12271;SDS011;6198;51.446;6.698;2023-07-13T12:56:50;6.10;;;2.80;;
12271;SDS011;6198;51.446;6.698;2023-07-13T12:59:19;5.40;;;2.70;;
12271;SDS011;6198;51.446;6.698;2023-07-13T13:01:46;6.10;;;2.80;;
12271;SDS011;6198;51.446;6.698;2023-07-13T13:04:12;4.07;;;2.43;;
12271;SDS011;6198;51.446;6.698;2023-07-13T13:06:38;7.50;;;2.93;;
12271;SDS011;6198;51.446;6.698;2023-07-13T13:09:09;5.47;;;2.70;;
12271;SDS011;6198;51.446;6.698;2023-07-13T13:11:37;5.30;;;2.30;;
12271;SDS011;6198;51.446;6.698;2023-07-13T13:14:02;4.80;;;2.47;;
12271;SDS011;6198;51.446;6.698;2023-07-13T13:16:30;3.47;;;2.40;;
12271;SDS011;6198;51.446;6.698;2023-07-13T13:18:57;4.97;;;2.70;;
12271;SDS011;6198;51.446;6.698;2023-07-13T13:21:25;3.80;;;2.30;;
12271;SDS011;6198;51.446;6.698;2023-07-13T13:23:51;5.97;;;2.63;;
12271;SDS011;6198;51.446;6.698;2023-07-13T13:26:18;4.70;;;2.40;;
12271;SDS011;6198;51.446;6.698;2023-07-13T13:28:44;6.93;;;2.63;;
12271;SDS011;6198;51.446;6.698;2023-07-13T13:31:12;4.60;;;2.50;;
12271;SDS011;6198;51.446;6.698;2023-07-13T13:33:39;6.37;;;2.77;;
12271;SDS011;6198;51.446;6.698;2023-07-13T13:36:17;5.83;;;2.63;;
12271;SDS011;6198;51.446;6.698;2023-07-13T13:38:44;5.47;;;2.40;;
12271;SDS011;6198;51.446;6.698;2023-07-13T13:41:11;5.33;;;2.60;;
12271;SDS011;6198;51.446;6.698;2023-07-13T13:43:38;3.50;;;2.20;;
12271;SDS011;6198;51.446;6.698;2023-07-13T13:46:05;3.30;;;1.97;;
12271;SDS011;6198;51.446;6.698;2023-07-13T13:48:37;5.63;;;2.50;;
12271;SDS011;6198;51.446;6.698;2023-07-13T13:51:06;5.00;;;2.30;;
12271;SDS011;6198;51.446;6.698;2023-07-13T13:53:36;5.17;;;2.80;;
12271;SDS011;6198;51.446;6.698;2023-07-13T13:56:01;2.77;;;1.97;;
12271;SDS011;6198;51.446;6.698;2023-07-13T13:58:27;4.40;;;2.60;;
12271;SDS011;6198;51.446;6.698;2023-07-13T14:00:55;8.43;;;3.07;;
12271;SDS011;6198;51.446;6.698;2023-07-13T14:03:23;5.73;;;3.00;;
12271;SDS011;6198;51.446;6.698;2023-07-13T14:05:49;6.23;;;3.37;;
12271;SDS011;6198;51.446;6.698;2023-07-13T14:08:16;5.53;;;3.10;;
12271;SDS011;6198;51.446;6.698;2023-07-13T14:10:43;5.77;;;2.97;;
12271;SDS011;6198;51.446;6.698;2023-07-13T14:13:17;6.00;;;3.10;;
12271;SDS011;6198;51.446;6.698;2023-07-13T14:15:44;5.40;;;3.10;;
12271;SDS011;6198;51.446;6.698;2023-07-13T14:18:10;6.30;;;3.33;;
12271;SDS011;6198;51.446;6.698;2023-07-13T14:20:36;6.10;;;3.20;;
12271;SDS011;6198;51.446;6.698;2023-07-13T14:23:03;8.47;;;3.40;;
12271;SDS011;6198;51.446;6.698;2023-07-13T14:25:28;4.87;;;2.70;;
12271;SDS011;6198;51.446;6.698;2023-07-13T14:27:56;6.80;;;3.30;;
12271;SDS011;6198;51.446;6.698;2023-07-13T14:30:32;5.87;;;3.30;;
12271;SDS011;6198;51.446;6.698;2023-07-13T14:32:58;7.83;;;3.43;;
12271;SDS011;6198;51.446;6.698;2023-07-13T14:35:24;6.50;;;3.43;;
12271;SDS011;6198;51.446;6.698;2023-07-13T14:37:51;3.87;;;2.80;;
12271;SDS011;6198;51.446;6.698;2023-07-13T14:40:18;7.40;;;3.40;;
12271;SDS011;6198;51.446;6.698;2023-07-13T14:42:45;5.50;;;3.30;;
12271;SDS011;6198;51.446;6.698;2023-07-13T14:45:12;5.60;;;3.00;;
12271;SDS011;6198;51.446;6.698;2023-07-13T14:47:38;7.23;;;2.93;;
12271;SDS011;6198;51.446;6.698;2023-07-13T14:50:04;5.43;;;2.80;;
12271;SDS011;6198;51.446;6.698;2023-07-13T14:52:34;8.43;;;2.90;;
12271;SDS011;6198;51.446;6.698;2023-07-13T14:55:00;6.40;;;3.30;;
12271;SDS011;6198;51.446;6.698;2023-07-13T14:57:26;6.80;;;3.30;;
12271;SDS011;6198;51.446;6.698;2023-07-13T14:59:52;6.97;;;3.30;;
12271;SDS011;6198;51.446;6.698;2023-07-13T15:02:27;7.50;;;3.30;;
12271;SDS011;6198;51.446;6.698;2023-07-13T15:04:54;6.27;;;3.43;;
12271;SDS011;6198;51.446;6.698;2023-07-13T15:07:20;8.47;;;3.30;;
12271;SDS011;6198;51.446;6.698;2023-07-13T15:09:47;7.30;;;3.47;;
12271;SDS011;6198;51.446;6.698;2023-07-13T15:12:13;5.43;;;3.20;;
12271;SDS011;6198;51.446;6.698;2023-07-13T15:14:39;6.03;;;2.80;;
12271;SDS011;6198;51.446;6.698;2023-07-13T15:17:08;6.00;;;3.40;;
12271;SDS011;6198;51.446;6.698;2023-07-13T15:19:39;7.63;;;3.30;;
12271;SDS011;6198;51.446;6.698;2023-07-13T15:22:07;3.03;;;2.27;;
12271;SDS011;6198;51.446;6.698;2023-07-13T15:24:34;5.80;;;3.00;;
12271;SDS011;6198;51.446;6.698;2023-07-13T15:27:00;5.03;;;2.77;;
12271;SDS011;6198;51.446;6.698;2023-07-13T15:29:26;5.17;;;3.17;;
12271;SDS011;6198;51.446;6.698;2023-07-13T15:31:51;7.80;;;3.57;;
12271;SDS011;6198;51.446;6.698;2023-07-13T15:34:18;6.10;;;3.80;;
12271;SDS011;6198;51.446;6.698;2023-07-13T15:36:46;6.47;;;3.50;;
12271;SDS011;6198;51.446;6.698;2023-07-13T15:39:16;5.47;;;3.00;;